createdAt,value
2023-04-27T00:00:14.026Z,23.58
2023-04-27T00:01:14.074Z,23.57
2023-04-27T00:02:14.217Z,23.57
2023-04-27T00:03:14.331Z,23.57
2023-04-27T00:04:14.502Z,23.57
2023-04-27T00:05:14.562Z,23.56
2023-04-27T00:06:14.348Z,23.57
2023-04-27T00:07:14.340Z,23.56
2023-04-27T00:08:14.367Z,23.57
2023-04-27T00:09:14.580Z,23.57
2023-04-27T00:10:14.480Z,23.57
2023-04-27T00:11:14.523Z,23.56
2023-04-27T00:12:14.578Z,23.56
2023-04-27T00:13:14.625Z,23.56
2023-04-27T00:14:14.637Z,23.56
2023-04-27T00:15:14.684Z,23.56
2023-04-27T00:16:14.763Z,23.55
2023-04-27T00:17:14.767Z,23.55
2023-04-27T00:18:14.816Z,23.55
2023-04-27T00:19:15.276Z,23.56
2023-04-27T00:20:14.953Z,23.55
2023-04-27T00:21:15.017Z,23.56
2023-04-27T00:22:15.091Z,23.55
2023-04-27T00:23:15.145Z,23.55
2023-04-27T00:24:15.200Z,23.55
2023-04-27T00:25:15.293Z,23.54
2023-04-27T00:26:15.316Z,23.55
2023-04-27T00:27:15.409Z,23.55
2023-04-27T00:28:15.459Z,23.55
2023-04-27T00:29:15.681Z,23.53
2023-04-27T00:30:15.569Z,23.55
2023-04-27T00:31:15.694Z,23.54
2023-04-27T00:32:15.776Z,23.55
2023-04-27T00:33:15.797Z,23.54
2023-04-27T00:34:15.853Z,23.55
2023-04-27T00:35:15.879Z,23.54
2023-04-27T00:36:15.953Z,23.54
2023-04-27T00:37:15.995Z,23.54
2023-04-27T00:38:16.071Z,23.54
2023-04-27T00:39:16.334Z,23.54
2023-04-27T00:40:16.245Z,23.54
2023-04-27T00:41:16.313Z,23.54
2023-04-27T00:42:16.321Z,23.54
2023-04-27T00:43:16.399Z,23.54
2023-04-27T00:44:16.454Z,23.54
2023-04-27T00:45:16.505Z,23.53
2023-04-27T00:46:16.632Z,23.52
2023-04-27T00:47:16.562Z,23.53
2023-04-27T00:48:16.645Z,23.54
2023-04-27T00:49:16.709Z,23.53
2023-04-27T00:50:16.761Z,23.53
2023-04-27T00:51:16.797Z,23.53
2023-04-27T00:52:16.872Z,23.53
2023-04-27T00:53:16.897Z,23.52
2023-04-27T00:54:16.969Z,23.53
2023-04-27T00:55:17.005Z,23.53
2023-04-27T00:56:17.049Z,23.53
2023-04-27T00:57:17.089Z,23.53
2023-04-27T00:58:17.127Z,23.52
2023-04-27T00:59:17.176Z,23.52
2023-04-27T01:00:17.213Z,23.52
2023-04-27T01:01:17.215Z,23.53
2023-04-27T01:02:17.343Z,23.52
2023-04-27T01:03:17.418Z,23.52
2023-04-27T01:04:17.446Z,23.52
2023-04-27T01:05:17.391Z,23.52
2023-04-27T01:06:17.411Z,23.52
2023-04-27T01:07:17.482Z,23.52
2023-04-27T01:08:17.489Z,23.52
2023-04-27T01:09:17.487Z,23.52
2023-04-27T01:10:17.529Z,23.52
2023-04-27T01:11:17.598Z,23.51
2023-04-27T01:12:17.591Z,23.51
2023-04-27T01:13:17.629Z,23.51
2023-04-27T01:14:17.675Z,23.52
2023-04-27T01:15:17.743Z,23.51
2023-04-27T01:16:17.755Z,23.51
2023-04-27T01:17:17.857Z,23.51
2023-04-27T01:18:17.914Z,23.50
2023-04-27T01:19:17.902Z,23.51
2023-04-27T01:20:17.960Z,23.50
2023-04-27T01:21:18.033Z,23.51
2023-04-27T01:22:18.021Z,23.51
2023-04-27T01:23:18.075Z,23.51
2023-04-27T01:24:18.128Z,23.51
2023-04-27T01:25:18.204Z,23.50
2023-04-27T01:26:18.246Z,23.50
2023-04-27T01:27:18.315Z,23.50
2023-04-27T01:28:18.359Z,23.50
2023-04-27T01:29:18.403Z,23.50
2023-04-27T01:30:18.430Z,23.50
2023-04-27T01:31:18.529Z,23.50
2023-04-27T01:32:18.473Z,23.50
2023-04-27T01:33:18.523Z,23.50
2023-04-27T01:34:18.581Z,23.49
2023-04-27T01:35:18.601Z,23.50
2023-04-27T01:36:18.629Z,23.49
2023-04-27T01:37:18.687Z,23.50
2023-04-27T01:38:18.698Z,23.49
2023-04-27T01:39:18.709Z,23.49
2023-04-27T01:40:18.767Z,23.50
2023-04-27T01:41:18.762Z,23.49
2023-04-27T01:42:18.807Z,23.49
2023-04-27T01:43:18.853Z,23.49
2023-04-27T01:44:18.865Z,23.49
2023-04-27T01:45:18.894Z,23.49
2023-04-27T01:46:18.908Z,23.50
2023-04-27T01:47:18.968Z,23.49
2023-04-27T01:48:18.970Z,23.49
2023-04-27T01:49:19.005Z,23.49
2023-04-27T01:50:19.019Z,23.48
2023-04-27T01:51:19.096Z,23.49
2023-04-27T01:52:19.114Z,23.48
2023-04-27T01:53:19.163Z,23.48
2023-04-27T01:54:19.224Z,23.48
2023-04-27T01:55:19.213Z,23.48
2023-04-27T01:56:19.253Z,23.48
2023-04-27T01:57:19.300Z,23.48
2023-04-27T01:58:19.335Z,23.47
2023-04-27T01:59:19.366Z,23.47
2023-04-27T02:00:19.363Z,23.47
2023-04-27T02:01:19.436Z,23.47
2023-04-27T02:02:19.484Z,23.47
2023-04-27T02:03:19.574Z,23.47
2023-04-27T02:04:19.688Z,23.48
2023-04-27T02:05:19.515Z,23.47
2023-04-27T02:06:19.556Z,23.48
2023-04-27T02:07:19.589Z,23.47
2023-04-27T02:08:19.610Z,23.47
2023-04-27T02:09:19.605Z,23.47
2023-04-27T02:10:19.671Z,23.47
2023-04-27T02:11:19.676Z,23.47
2023-04-27T02:12:19.776Z,23.46
2023-04-27T02:13:19.755Z,23.46
2023-04-27T02:14:19.792Z,23.46
2023-04-27T02:15:19.828Z,23.46
2023-04-27T02:16:19.851Z,23.46
2023-04-27T02:17:19.901Z,23.47
2023-04-27T02:18:19.900Z,23.47
2023-04-27T02:19:19.904Z,23.47
2023-04-27T02:20:19.983Z,23.46
2023-04-27T02:21:20.029Z,23.46
2023-04-27T02:22:20.028Z,23.46
2023-04-27T02:23:20.062Z,23.45
2023-04-27T02:24:20.107Z,23.46
2023-04-27T02:25:20.173Z,23.46
2023-04-27T02:26:20.154Z,23.46
2023-04-27T02:27:20.226Z,23.46
2023-04-27T02:28:20.232Z,23.45
2023-04-27T02:29:20.305Z,23.45
2023-04-27T02:30:20.258Z,23.46
2023-04-27T02:31:20.360Z,23.45
2023-04-27T02:32:20.308Z,23.45
2023-04-27T02:33:20.327Z,23.46
2023-04-27T02:34:20.360Z,23.45
2023-04-27T02:35:20.369Z,23.45
2023-04-27T02:36:20.396Z,23.45
2023-04-27T02:37:20.447Z,23.45
2023-04-27T02:38:20.430Z,23.45
2023-04-27T02:39:20.481Z,23.45
2023-04-27T02:40:20.537Z,23.44
2023-04-27T02:41:20.579Z,23.45
2023-04-27T02:42:20.601Z,23.44
2023-04-27T02:43:20.586Z,23.45
2023-04-27T02:44:20.582Z,23.44
2023-04-27T02:45:20.624Z,23.44
2023-04-27T02:46:20.642Z,23.44
2023-04-27T02:47:20.641Z,23.44
2023-04-27T02:48:20.641Z,23.45
2023-04-27T02:49:20.697Z,23.44
2023-04-27T02:50:20.734Z,23.44
2023-04-27T02:51:20.770Z,23.44
2023-04-27T02:52:20.798Z,23.44
2023-04-27T02:53:20.866Z,23.44
2023-04-27T02:54:20.826Z,23.44
2023-04-27T02:55:20.894Z,23.44
2023-04-27T02:56:20.937Z,23.44
2023-04-27T02:57:21.006Z,23.43
2023-04-27T02:58:21.003Z,23.43
2023-04-27T02:59:21.028Z,23.43
2023-04-27T03:00:20.995Z,23.43
2023-04-27T03:01:21.048Z,23.44
2023-04-27T03:02:21.136Z,23.43
2023-04-27T03:03:21.205Z,23.43
2023-04-27T03:04:21.255Z,23.43
2023-04-27T03:05:21.054Z,23.43
2023-04-27T03:06:21.106Z,23.42
2023-04-27T03:07:21.113Z,23.43
2023-04-27T03:08:21.146Z,23.43
2023-04-27T03:09:21.146Z,23.42
2023-04-27T03:10:21.171Z,23.43
2023-04-27T03:11:21.199Z,23.42
2023-04-27T03:12:21.216Z,23.42
2023-04-27T03:13:21.191Z,23.42
2023-04-27T03:14:21.199Z,23.42
2023-04-27T03:15:21.215Z,23.42
2023-04-27T03:16:21.251Z,23.43
2023-04-27T03:17:21.222Z,23.42
2023-04-27T03:18:21.239Z,23.42
2023-04-27T03:19:21.282Z,23.42
2023-04-27T03:20:21.321Z,23.43
2023-04-27T03:21:21.293Z,23.41
2023-04-27T03:22:21.354Z,23.42
2023-04-27T03:23:21.369Z,23.42
2023-04-27T03:24:21.362Z,23.42
2023-04-27T03:25:21.410Z,23.42
2023-04-27T03:26:21.374Z,23.41
2023-04-27T03:27:21.839Z,23.41
2023-04-27T03:28:21.416Z,23.41
2023-04-27T03:29:21.401Z,23.42
2023-04-27T03:30:21.392Z,23.41
2023-04-27T03:31:21.410Z,23.41
2023-04-27T03:32:21.415Z,23.42
2023-04-27T03:33:21.432Z,23.41
2023-04-27T03:34:21.434Z,23.41
2023-04-27T03:35:21.431Z,23.41
2023-04-27T03:36:21.442Z,23.40
2023-04-27T03:37:21.470Z,23.40
2023-04-27T03:38:21.453Z,23.40
2023-04-27T03:39:21.431Z,23.40
2023-04-27T03:40:21.430Z,23.40
2023-04-27T03:41:21.456Z,23.40
2023-04-27T03:42:21.414Z,23.41
2023-04-27T03:43:21.431Z,23.40
2023-04-27T03:44:21.465Z,23.40
2023-04-27T03:45:21.470Z,23.40
2023-04-27T03:46:21.472Z,23.39
2023-04-27T03:47:21.465Z,23.40
2023-04-27T03:48:21.476Z,23.40
2023-04-27T03:49:21.488Z,23.39
2023-04-27T03:50:21.527Z,23.40
2023-04-27T03:51:22.336Z,23.40
2023-04-27T03:52:46.019Z,23.35
2023-04-27T03:53:46.022Z,23.37
2023-04-27T03:54:46.005Z,23.38
2023-04-27T03:55:46.037Z,23.39
2023-04-27T03:56:45.998Z,23.38
2023-04-27T03:57:46.015Z,23.39
2023-04-27T03:58:46.023Z,23.39
2023-04-27T03:59:46.015Z,23.39
2023-04-27T04:00:46.018Z,23.39
2023-04-27T04:01:46.053Z,23.39
2023-04-27T04:02:46.074Z,23.39
2023-04-27T04:03:46.240Z,23.38
2023-04-27T04:04:46.260Z,23.39
2023-04-27T04:05:46.019Z,23.38
2023-04-27T04:06:46.102Z,23.39
2023-04-27T04:07:46.048Z,23.39
2023-04-27T04:08:46.042Z,23.39
2023-04-27T04:09:46.044Z,23.39
2023-04-27T04:10:46.008Z,23.38
2023-04-27T04:11:46.019Z,23.38
2023-04-27T04:12:46.059Z,23.38
2023-04-27T04:13:46.047Z,23.38
2023-04-27T04:14:46.020Z,23.38
2023-04-27T04:15:46.059Z,23.38
2023-04-27T04:16:46.045Z,23.38
2023-04-27T04:17:46.066Z,23.37
2023-04-27T04:18:46.071Z,23.38
2023-04-27T04:19:46.021Z,23.38
2023-04-27T04:20:46.061Z,23.37
2023-04-27T04:21:46.025Z,23.38
2023-04-27T04:22:46.044Z,23.37
2023-04-27T04:23:46.041Z,23.38
2023-04-27T04:24:46.047Z,23.37
2023-04-27T04:25:46.022Z,23.38
2023-04-27T04:26:46.058Z,23.38
2023-04-27T04:27:46.058Z,23.38
2023-04-27T04:28:46.017Z,23.37
2023-04-27T04:29:46.039Z,23.37
2023-04-27T04:30:46.055Z,23.38
2023-04-27T04:31:46.091Z,23.37
2023-04-27T04:32:46.117Z,23.37
2023-04-27T04:33:46.053Z,23.37
2023-04-27T04:34:46.070Z,23.38
2023-04-27T04:35:46.079Z,23.37
2023-04-27T04:36:46.071Z,23.38
2023-04-27T04:37:46.086Z,23.37
2023-04-27T04:38:46.096Z,23.37
2023-04-27T04:39:46.097Z,23.37
2023-04-27T04:40:46.238Z,23.37
2023-04-27T04:41:46.089Z,23.37
2023-04-27T04:42:46.093Z,23.36
2023-04-27T04:43:46.086Z,23.37
2023-04-27T04:44:46.093Z,23.37
2023-04-27T04:45:46.065Z,23.36
2023-04-27T04:46:46.149Z,23.36
2023-04-27T04:47:46.120Z,23.36
2023-04-27T04:48:46.131Z,23.36
2023-04-27T04:49:46.104Z,23.36
2023-04-27T04:50:46.119Z,23.36
2023-04-27T04:51:46.115Z,23.36
2023-04-27T04:52:46.134Z,23.36
2023-04-27T04:53:46.129Z,23.36
2023-04-27T04:54:46.134Z,23.35
2023-04-27T04:55:46.145Z,23.35
2023-04-27T04:56:46.127Z,23.35
2023-04-27T04:57:46.138Z,23.35
2023-04-27T04:58:46.123Z,23.36
2023-04-27T04:59:46.122Z,23.35
2023-04-27T05:00:46.148Z,23.35
2023-04-27T05:01:46.153Z,23.35
2023-04-27T05:02:46.227Z,23.34
2023-04-27T05:03:46.307Z,23.35
2023-04-27T05:04:46.334Z,23.35
2023-04-27T05:05:46.216Z,23.35
2023-04-27T05:06:46.330Z,23.35
2023-04-27T05:07:46.278Z,23.35
2023-04-27T05:08:46.306Z,23.35
2023-04-27T05:09:46.364Z,23.34
2023-04-27T05:10:46.383Z,23.35
2023-04-27T05:11:46.427Z,23.34
2023-04-27T05:12:46.483Z,23.35
2023-04-27T05:13:46.557Z,23.34
2023-04-27T05:14:46.572Z,23.34
2023-04-27T05:15:46.663Z,23.34
2023-04-27T05:16:46.666Z,23.35
2023-04-27T05:17:46.804Z,23.34
2023-04-27T05:18:46.727Z,23.35
2023-04-27T05:19:46.785Z,23.35
2023-04-27T05:20:46.838Z,23.35
2023-04-27T05:21:46.868Z,23.35
2023-04-27T05:22:46.896Z,23.35
2023-04-27T05:23:46.899Z,23.35
2023-04-27T05:24:46.959Z,23.35
2023-04-27T05:25:46.940Z,23.36
2023-04-27T05:26:46.988Z,23.35
2023-04-27T05:27:47.026Z,23.35
2023-04-27T05:28:47.085Z,23.35
2023-04-27T05:29:47.093Z,23.35
2023-04-27T05:30:47.707Z,23.35
2023-04-27T05:31:47.226Z,23.35
2023-04-27T05:32:47.305Z,23.34
2023-04-27T05:33:47.180Z,23.35
2023-04-27T05:34:49.228Z,23.34
2023-04-27T05:35:47.263Z,23.34
2023-04-27T05:36:47.353Z,23.33
2023-04-27T05:37:47.342Z,23.31
2023-04-27T05:38:47.340Z,23.31
2023-04-27T05:39:47.397Z,23.31
2023-04-27T05:40:47.469Z,23.32
2023-04-27T05:41:47.486Z,23.32
2023-04-27T05:42:47.508Z,23.34
2023-04-27T05:43:47.512Z,23.36
2023-04-27T05:44:47.566Z,23.39
2023-04-27T05:45:47.668Z,23.38
2023-04-27T05:46:47.647Z,23.40
2023-04-27T05:47:47.683Z,23.41
2023-04-27T05:48:47.646Z,23.42
2023-04-27T05:49:47.716Z,23.45
2023-04-27T05:50:47.786Z,23.48
2023-04-27T05:51:47.859Z,23.50
2023-04-27T05:52:47.935Z,23.54
2023-04-27T05:53:48.014Z,23.57
2023-04-27T05:54:48.090Z,23.60
2023-04-27T05:55:48.146Z,23.63
2023-04-27T05:56:48.195Z,23.65
2023-04-27T05:57:54.468Z,23.69
2023-04-27T05:58:49.233Z,23.70
2023-04-27T05:59:48.297Z,23.72
2023-04-27T06:00:48.244Z,23.70
2023-04-27T06:01:48.268Z,23.64
2023-04-27T06:02:48.443Z,23.56
2023-04-27T06:03:48.424Z,23.54
2023-04-27T06:04:48.319Z,23.51
2023-04-27T06:05:48.283Z,23.48
2023-04-27T06:06:48.284Z,23.48
2023-04-27T06:07:48.354Z,23.47
2023-04-27T06:08:49.227Z,23.47
2023-04-27T06:09:48.392Z,23.46
2023-04-27T06:10:48.412Z,23.46
2023-04-27T06:11:48.471Z,23.46
2023-04-27T06:12:48.491Z,23.45
2023-04-27T06:13:48.555Z,23.45
2023-04-27T06:14:48.555Z,23.45
2023-04-27T06:15:48.593Z,23.46
2023-04-27T06:16:48.576Z,23.46
2023-04-27T06:17:48.663Z,23.45
2023-04-27T06:18:48.623Z,23.46
2023-04-27T06:19:48.725Z,23.46
2023-04-27T06:20:48.817Z,23.44
2023-04-27T06:21:48.868Z,23.43
2023-04-27T06:22:48.988Z,23.42
2023-04-27T06:23:49.060Z,23.42
2023-04-27T06:24:49.133Z,23.41
2023-04-27T06:25:49.207Z,23.40
2023-04-27T06:26:49.349Z,23.39
2023-04-27T06:27:49.385Z,23.38
2023-04-27T06:28:49.501Z,23.38
2023-04-27T06:29:49.538Z,23.37
2023-04-27T06:30:49.632Z,23.38
2023-04-27T06:31:49.754Z,23.38
2023-04-27T06:32:49.769Z,23.38
2023-04-27T06:33:49.825Z,23.38
2023-04-27T06:34:49.915Z,23.38
2023-04-27T06:35:49.967Z,23.38
2023-04-27T06:36:50.084Z,23.38
2023-04-27T06:37:50.161Z,23.38
2023-04-27T06:38:50.233Z,23.39
2023-04-27T06:39:50.315Z,23.39
2023-04-27T06:40:50.402Z,23.41
2023-04-27T06:41:50.432Z,23.43
2023-04-27T06:42:50.552Z,23.43
2023-04-27T06:43:50.580Z,23.44
2023-04-27T06:44:50.695Z,23.45
2023-04-27T06:45:50.804Z,23.39
2023-04-27T06:46:50.859Z,23.22
2023-04-27T06:47:50.867Z,23.09
2023-04-27T06:48:50.910Z,22.92
2023-04-27T06:49:50.942Z,22.80
2023-04-27T06:50:51.003Z,22.66
2023-04-27T06:51:51.051Z,22.56
2023-04-27T06:52:51.137Z,22.42
2023-04-27T06:53:51.238Z,22.34
2023-04-27T06:54:51.315Z,22.38
2023-04-27T06:55:51.406Z,22.47
2023-04-27T06:56:51.498Z,22.58
2023-04-27T06:57:51.542Z,22.70
2023-04-27T06:58:51.706Z,22.82
2023-04-27T06:59:51.669Z,22.94
2023-04-27T07:00:51.730Z,23.06
2023-04-27T07:01:51.841Z,23.15
2023-04-27T07:02:51.862Z,23.26
2023-04-27T07:03:52.069Z,23.35
2023-04-27T07:04:52.023Z,23.45
2023-04-27T07:05:52.033Z,23.51
2023-04-27T07:06:52.090Z,23.59
2023-04-27T07:07:52.136Z,23.65
2023-04-27T07:08:52.202Z,23.72
2023-04-27T07:09:52.252Z,23.79
2023-04-27T07:10:52.304Z,23.84
2023-04-27T07:11:52.339Z,23.89
2023-04-27T07:12:52.425Z,23.94
2023-04-27T07:13:52.433Z,23.98
2023-04-27T07:14:54.277Z,24.04
2023-04-27T07:15:52.548Z,24.08
2023-04-27T07:16:52.585Z,24.12
2023-04-27T07:17:52.629Z,24.15
2023-04-27T07:18:52.640Z,24.19
2023-04-27T07:19:52.677Z,24.23
2023-04-27T07:20:52.733Z,24.26
2023-04-27T07:21:52.740Z,24.29
2023-04-27T07:22:52.751Z,24.33
2023-04-27T07:23:54.175Z,24.35
2023-04-27T07:24:52.790Z,24.38
2023-04-27T07:25:52.816Z,24.40
2023-04-27T07:26:52.821Z,24.42
2023-04-27T07:27:53.288Z,24.43
2023-04-27T07:28:52.891Z,24.43
2023-04-27T07:29:52.910Z,24.44
2023-04-27T07:30:52.945Z,24.44
2023-04-27T07:31:53.065Z,24.46
2023-04-27T07:32:53.009Z,24.46
2023-04-27T07:33:52.940Z,24.47
2023-04-27T07:34:54.396Z,24.48
2023-04-27T07:35:53.002Z,24.48
2023-04-27T07:36:53.024Z,24.49
2023-04-27T07:37:52.999Z,24.49
2023-04-27T07:38:53.273Z,24.50
2023-04-27T07:39:53.116Z,24.52
2023-04-27T07:40:53.040Z,24.51
2023-04-27T07:41:53.084Z,24.51
2023-04-27T07:42:53.069Z,24.49
2023-04-27T07:43:53.271Z,24.48
2023-04-27T07:44:53.119Z,24.46
2023-04-27T07:45:53.178Z,24.43
2023-04-27T07:46:53.147Z,24.40
2023-04-27T07:47:53.158Z,24.39
2023-04-27T07:48:53.193Z,24.36
2023-04-27T07:49:53.207Z,24.33
2023-04-27T07:50:53.231Z,24.32
2023-04-27T07:51:53.242Z,24.29
2023-04-27T07:52:53.349Z,24.27
2023-04-27T07:53:53.334Z,24.25
2023-04-27T07:54:53.340Z,24.23
2023-04-27T07:55:53.381Z,24.21
2023-04-27T07:56:53.455Z,24.19
2023-04-27T07:57:53.448Z,24.18
2023-04-27T07:58:53.759Z,24.17
2023-04-27T07:59:53.588Z,24.15
2023-04-27T08:00:53.589Z,24.14
2023-04-27T08:01:59.199Z,24.13
2023-04-27T08:02:54.927Z,24.11
2023-04-27T08:03:53.887Z,24.10
2023-04-27T08:04:54.000Z,24.10
2023-04-27T08:05:54.157Z,24.09
2023-04-27T08:06:54.392Z,24.08
2023-04-27T08:07:54.348Z,24.08
2023-04-27T08:08:53.788Z,24.07
2023-04-27T08:09:53.664Z,24.06
2023-04-27T08:10:53.689Z,24.06
2023-04-27T08:11:53.691Z,24.05
2023-04-27T08:12:53.712Z,24.04
2023-04-27T08:13:53.717Z,24.04
2023-04-27T08:14:53.736Z,24.03
2023-04-27T08:15:54.297Z,24.02
2023-04-27T08:16:53.789Z,24.02
2023-04-27T08:17:53.791Z,24.02
2023-04-27T08:18:53.807Z,24.01
2023-04-27T08:19:53.819Z,24.01
2023-04-27T08:20:53.881Z,24.01
2023-04-27T08:21:53.917Z,24.01
2023-04-27T08:22:53.994Z,24.01
2023-04-27T08:23:54.055Z,24.01
2023-04-27T08:24:54.091Z,24.01
2023-04-27T08:25:54.159Z,24.00
2023-04-27T08:26:54.227Z,24.01
2023-04-27T08:27:54.252Z,24.00
2023-04-27T08:28:54.313Z,24.00
2023-04-27T08:29:54.375Z,23.97
2023-04-27T08:30:54.596Z,23.95
2023-04-27T08:31:56.653Z,23.96
2023-04-27T08:32:54.798Z,23.97
2023-04-27T08:33:54.806Z,23.98
2023-04-27T08:34:54.698Z,24.02
2023-04-27T08:35:54.757Z,24.03
2023-04-27T08:36:54.796Z,24.04
2023-04-27T08:37:54.848Z,24.06
2023-04-27T08:38:55.306Z,24.05
2023-04-27T08:39:54.942Z,24.03
2023-04-27T08:40:54.993Z,23.97
2023-04-27T08:41:55.081Z,23.89
2023-04-27T08:42:55.126Z,23.73
2023-04-27T08:43:55.652Z,23.54
2023-04-27T08:44:55.232Z,23.38
2023-04-27T08:45:55.339Z,23.29
2023-04-27T08:46:55.333Z,23.20
2023-04-27T08:47:55.331Z,23.06
2023-04-27T08:48:55.408Z,22.79
2023-04-27T08:49:55.446Z,22.68
2023-04-27T08:50:55.547Z,22.62
2023-04-27T08:51:55.594Z,22.65
2023-04-27T08:52:55.661Z,22.60
2023-04-27T08:53:55.723Z,22.59
2023-04-27T08:54:55.766Z,22.58
2023-04-27T08:55:56.779Z,22.51
2023-04-27T08:56:55.972Z,22.56
2023-04-27T08:57:56.015Z,22.66
2023-04-27T08:58:56.073Z,22.78
2023-04-27T08:59:56.072Z,22.91
2023-04-27T09:00:56.089Z,23.04
2023-04-27T09:01:56.132Z,23.15
2023-04-27T09:02:56.234Z,23.26
2023-04-27T09:03:56.556Z,23.35
2023-04-27T09:04:56.456Z,23.44
2023-04-27T09:06:03.432Z,23.53
2023-04-27T09:06:57.379Z,23.60
2023-04-27T09:07:56.298Z,23.67
2023-04-27T09:08:56.297Z,23.74
2023-04-27T09:09:56.323Z,23.80
2023-04-27T09:10:56.318Z,23.87
2023-04-27T09:11:56.350Z,23.92
2023-04-27T09:12:56.329Z,23.97
2023-04-27T09:13:56.308Z,24.02
2023-04-27T09:14:56.353Z,24.06
2023-04-27T09:15:56.319Z,24.12
2023-04-27T09:16:56.326Z,24.15
2023-04-27T09:17:56.470Z,24.20
2023-04-27T09:18:56.346Z,24.24
2023-04-27T09:19:56.327Z,24.27
2023-04-27T09:20:56.324Z,24.31
2023-04-27T09:21:56.328Z,24.32
2023-04-27T09:22:56.336Z,24.35
2023-04-27T09:23:56.347Z,24.38
2023-04-27T09:24:56.364Z,24.41
2023-04-27T09:25:56.333Z,24.44
2023-04-27T09:26:56.692Z,24.48
2023-04-27T09:27:56.398Z,24.51
2023-04-27T09:28:56.414Z,24.53
2023-04-27T09:29:56.386Z,24.55
2023-04-27T09:30:56.476Z,24.57
2023-04-27T09:31:56.549Z,24.58
2023-04-27T09:32:56.476Z,24.61
2023-04-27T09:33:56.486Z,24.66
2023-04-27T09:34:56.457Z,24.71
2023-04-27T09:35:56.418Z,24.74
2023-04-27T09:36:56.455Z,24.77
2023-04-27T09:37:56.415Z,24.82
2023-04-27T09:38:56.811Z,24.85
2023-04-27T09:39:56.409Z,24.88
2023-04-27T09:40:56.396Z,24.87
2023-04-27T09:41:56.426Z,24.86
2023-04-27T09:42:56.436Z,24.86
2023-04-27T09:43:57.906Z,24.86
2023-04-27T09:44:56.403Z,24.85
2023-04-27T09:45:56.412Z,24.83
2023-04-27T09:46:56.392Z,24.80
2023-04-27T09:47:56.468Z,24.71
2023-04-27T09:48:56.434Z,24.65
2023-04-27T09:49:56.409Z,24.62
2023-04-27T09:50:56.417Z,24.60
2023-04-27T09:51:56.464Z,24.57
2023-04-27T09:52:56.448Z,24.54
2023-04-27T09:53:56.517Z,24.51
2023-04-27T09:54:56.687Z,24.48
2023-04-27T09:55:56.553Z,24.45
2023-04-27T09:56:56.546Z,24.44
2023-04-27T09:57:56.576Z,24.42
2023-04-27T09:58:58.703Z,24.41
2023-04-27T09:59:56.656Z,24.41
2023-04-27T10:00:56.735Z,24.40
2023-04-27T10:01:56.745Z,24.38
2023-04-27T10:02:57.576Z,24.37
2023-04-27T10:03:56.876Z,24.37
2023-04-27T10:04:56.889Z,24.35
2023-04-27T10:05:56.854Z,24.35
2023-04-27T10:06:57.937Z,24.34
2023-04-27T10:07:56.878Z,24.34
2023-04-27T10:08:56.918Z,24.36
2023-04-27T10:09:56.953Z,24.38
2023-04-27T10:10:56.996Z,24.40
2023-04-27T10:11:57.026Z,24.42
2023-04-27T10:12:57.036Z,24.45
2023-04-27T10:13:57.048Z,24.48
2023-04-27T10:14:57.082Z,24.50
2023-04-27T10:15:57.100Z,24.51
2023-04-27T10:16:57.139Z,24.53
2023-04-27T10:17:57.169Z,24.55
2023-04-27T10:18:57.072Z,24.57
2023-04-27T10:19:58.202Z,24.59
2023-04-27T10:20:57.085Z,24.60
2023-04-27T10:21:57.106Z,24.61
2023-04-27T10:22:57.073Z,24.62
2023-04-27T10:23:57.125Z,24.63
2023-04-27T10:24:57.128Z,24.65
2023-04-27T10:25:57.109Z,24.67
2023-04-27T10:26:57.077Z,24.70
2023-04-27T10:27:57.080Z,24.71
2023-04-27T10:28:57.091Z,24.72
2023-04-27T10:29:57.124Z,24.73
2023-04-27T10:30:57.115Z,24.74
2023-04-27T10:31:57.082Z,24.75
2023-04-27T10:32:57.108Z,24.75
2023-04-27T10:33:57.149Z,24.77
2023-04-27T10:34:57.067Z,24.79
2023-04-27T10:35:57.098Z,24.80
2023-04-27T10:36:57.068Z,24.81
2023-04-27T10:37:57.074Z,24.82
2023-04-27T10:38:57.081Z,24.83
2023-04-27T10:39:57.377Z,24.82
2023-04-27T10:40:57.117Z,24.82
2023-04-27T10:41:57.102Z,24.82
2023-04-27T10:42:57.072Z,24.80
2023-04-27T10:43:57.121Z,24.80
2023-04-27T10:44:57.159Z,24.78
2023-04-27T10:45:57.159Z,24.77
2023-04-27T10:46:57.186Z,24.75
2023-04-27T10:47:57.219Z,24.74
2023-04-27T10:48:57.129Z,24.73
2023-04-27T10:49:57.133Z,24.71
2023-04-27T10:50:57.158Z,24.71
2023-04-27T10:51:57.148Z,24.70
2023-04-27T10:52:57.697Z,24.70
2023-04-27T10:53:57.194Z,24.69
2023-04-27T10:54:57.185Z,24.69
2023-04-27T10:55:57.161Z,24.69
2023-04-27T10:56:57.184Z,24.69
2023-04-27T10:57:57.250Z,24.68
2023-04-27T10:58:57.230Z,24.68
2023-04-27T10:59:57.251Z,24.67
2023-04-27T11:00:57.356Z,24.67
2023-04-27T11:01:57.320Z,24.66
2023-04-27T11:02:57.422Z,24.65
2023-04-27T11:03:57.359Z,24.65
2023-04-27T11:04:57.432Z,24.65
2023-04-27T11:05:58.111Z,24.65
2023-04-27T11:06:57.352Z,24.65
2023-04-27T11:07:57.374Z,24.65
2023-04-27T11:08:57.351Z,24.65
2023-04-27T11:09:57.394Z,24.65
2023-04-27T11:10:57.380Z,24.64
2023-04-27T11:11:57.419Z,24.63
2023-04-27T11:12:57.420Z,24.63
2023-04-27T11:13:57.414Z,24.63
2023-04-27T11:14:57.400Z,24.62
2023-04-27T11:15:57.546Z,24.63
2023-04-27T11:16:57.454Z,24.63
2023-04-27T11:17:57.484Z,24.63
2023-04-27T11:18:59.614Z,24.64
2023-04-27T11:19:57.471Z,24.63
2023-04-27T11:20:57.463Z,24.64
2023-04-27T11:21:57.444Z,24.63
2023-04-27T11:22:57.562Z,24.63
2023-04-27T11:23:57.470Z,24.63
2023-04-27T11:24:57.497Z,24.63
2023-04-27T11:25:57.524Z,24.62
2023-04-27T11:26:57.520Z,24.62
2023-04-27T11:27:57.553Z,24.62
2023-04-27T11:28:57.553Z,24.62
2023-04-27T11:29:57.870Z,24.62
2023-04-27T11:30:57.593Z,24.62
2023-04-27T11:31:57.735Z,24.61
2023-04-27T11:32:57.621Z,24.60
2023-04-27T11:33:57.633Z,24.60
2023-04-27T11:34:59.583Z,24.61
2023-04-27T11:35:57.641Z,24.60
2023-04-27T11:37:07.139Z,24.60
2023-04-27T11:37:58.676Z,24.60
2023-04-27T11:38:57.715Z,24.60
2023-04-27T11:39:57.709Z,24.59
2023-04-27T11:40:57.652Z,24.60
2023-04-27T11:41:57.688Z,24.59
2023-04-27T11:42:57.648Z,24.59
2023-04-27T11:43:57.629Z,24.59
2023-04-27T11:44:57.643Z,24.60
2023-04-27T11:45:57.626Z,24.60
2023-04-27T11:46:57.744Z,24.60
2023-04-27T11:47:57.677Z,24.60
2023-04-27T11:48:57.602Z,24.60
2023-04-27T11:49:57.623Z,24.61
2023-04-27T11:50:57.616Z,24.62
2023-04-27T11:51:57.635Z,24.62
2023-04-27T11:52:57.583Z,24.62
2023-04-27T11:53:57.564Z,24.62
2023-04-27T11:54:57.546Z,24.62
2023-04-27T11:55:57.551Z,24.63
2023-04-27T11:56:57.537Z,24.63
2023-04-27T11:57:57.536Z,24.63
2023-04-27T11:58:57.536Z,24.63
2023-04-27T11:59:57.540Z,24.63
2023-04-27T12:00:57.523Z,24.64
2023-04-27T12:01:57.549Z,24.64
2023-04-27T12:02:57.708Z,24.62
2023-04-27T12:04:00.036Z,24.63
2023-04-27T12:04:57.655Z,24.62
2023-04-27T12:06:04.153Z,24.63
2023-04-27T12:06:58.474Z,24.62
2023-04-27T12:07:57.475Z,24.63
2023-04-27T12:08:57.446Z,24.63
2023-04-27T12:09:59.501Z,24.64
2023-04-27T12:10:57.437Z,24.64
2023-04-27T12:11:57.432Z,24.65
2023-04-27T12:12:57.454Z,24.66
2023-04-27T12:13:57.434Z,24.66
2023-04-27T12:14:57.424Z,24.66
2023-04-27T12:15:59.022Z,24.67
2023-04-27T12:16:57.465Z,24.66
2023-04-27T12:17:57.436Z,24.67
2023-04-27T12:18:57.381Z,24.68
2023-04-27T12:19:57.385Z,24.67
2023-04-27T12:20:58.109Z,24.67
2023-04-27T12:21:57.349Z,24.67
2023-04-27T12:22:57.338Z,24.67
2023-04-27T12:23:57.343Z,24.67
2023-04-27T12:24:57.330Z,24.67
2023-04-27T12:25:57.300Z,24.68
2023-04-27T12:26:57.303Z,24.68
2023-04-27T12:27:57.303Z,24.70
2023-04-27T12:28:57.295Z,24.69
2023-04-27T12:29:57.275Z,24.68
2023-04-27T12:30:57.281Z,24.68
2023-04-27T12:31:57.256Z,24.68
2023-04-27T12:32:57.286Z,24.68
2023-04-27T12:33:57.254Z,24.67
2023-04-27T12:34:57.427Z,24.66
2023-04-27T12:35:57.227Z,24.66
2023-04-27T12:36:57.221Z,24.66
2023-04-27T12:37:57.237Z,24.67
2023-04-27T12:38:57.203Z,24.68
2023-04-27T12:39:57.216Z,24.66
2023-04-27T12:40:57.210Z,24.66
2023-04-27T12:41:57.215Z,24.66
2023-04-27T12:42:59.164Z,24.66
2023-04-27T12:43:57.176Z,24.66
2023-04-27T12:44:57.148Z,24.67
2023-04-27T12:45:57.191Z,24.68
2023-04-27T12:46:57.148Z,24.68
2023-04-27T12:48:03.290Z,24.69
2023-04-27T12:48:58.134Z,24.69
2023-04-27T12:49:57.113Z,24.70
2023-04-27T12:50:57.094Z,24.70
2023-04-27T12:51:57.120Z,24.71
2023-04-27T12:52:57.076Z,24.71